createdAt,value
2019-03-26T00:02:17.497Z,6.80
2019-03-26T00:04:51.752Z,6.76
2019-03-26T00:07:26.306Z,6.76
2019-03-26T00:10:00.811Z,6.83
2019-03-26T00:12:35.336Z,6.92
2019-03-26T00:15:09.674Z,6.92
2019-03-26T00:17:43.904Z,6.93
2019-03-26T00:20:18.156Z,6.93
2019-03-26T00:22:52.404Z,6.95
2019-03-26T00:25:26.736Z,6.95
2019-03-26T00:28:00.953Z,6.86
2019-03-26T00:30:35.280Z,6.89
2019-03-26T00:33:10.195Z,6.93
2019-03-26T00:35:44.439Z,6.85
2019-03-26T00:38:19.067Z,6.78
2019-03-26T00:40:53.324Z,6.72
2019-03-26T00:43:27.567Z,6.68
2019-03-26T00:46:01.826Z,6.68
2019-03-26T00:48:36.034Z,6.63
2019-03-26T00:51:10.624Z,6.60
2019-03-26T00:53:45.100Z,6.59
2019-03-26T00:56:20.382Z,6.59
2019-03-26T00:58:54.948Z,6.50
2019-03-26T01:01:29.204Z,6.50
2019-03-26T01:04:03.712Z,6.51
2019-03-26T01:06:37.956Z,6.51
2019-03-26T01:09:12.186Z,6.51
2019-03-26T01:11:46.439Z,6.46
2019-03-26T01:14:21.006Z,6.46
2019-03-26T01:16:55.271Z,6.46
2019-03-26T01:19:29.528Z,6.47
2019-03-26T01:22:03.861Z,6.47
2019-03-26T01:24:38.080Z,6.47
2019-03-26T01:27:12.593Z,6.51
2019-03-26T01:29:46.826Z,6.59
2019-03-26T01:32:21.441Z,6.62
2019-03-26T01:34:55.668Z,6.59
2019-03-26T01:37:29.911Z,6.63
2019-03-26T01:40:04.625Z,6.59
2019-03-26T01:42:39.156Z,6.59
2019-03-26T01:45:13.660Z,6.61
2019-03-26T01:47:48.007Z,6.58
2019-03-26T01:50:22.239Z,6.58
2019-03-26T01:52:56.561Z,6.55
2019-03-26T01:55:30.800Z,6.48
2019-03-26T01:58:05.184Z,6.49
2019-03-26T02:00:39.444Z,6.47
2019-03-26T02:03:13.688Z,6.47
2019-03-26T02:05:47.932Z,6.50
2019-03-26T02:08:22.178Z,6.50
2019-03-26T02:10:56.413Z,6.46
2019-03-26T02:13:31.048Z,6.32
2019-03-26T02:16:05.345Z,6.32
2019-03-26T02:18:39.592Z,6.16
2019-03-26T02:21:14.697Z,6.16
2019-03-26T02:23:48.949Z,6.01
2019-03-26T02:26:23.189Z,5.98
2019-03-26T02:28:57.437Z,5.97
2019-03-26T02:31:31.676Z,5.91
2019-03-26T02:34:05.955Z,5.91
2019-03-26T02:36:40.223Z,5.90
2019-03-26T02:39:14.459Z,5.67
2019-03-26T02:41:49.106Z,5.53
2019-03-26T02:44:23.665Z,5.21
2019-03-26T02:46:57.896Z,5.14
2019-03-26T02:49:32.404Z,5.14
2019-03-26T02:52:06.643Z,5.16
2019-03-26T02:54:40.923Z,5.21
2019-03-26T02:57:15.148Z,5.28
2019-03-26T02:59:49.647Z,5.31
2019-03-26T03:02:23.882Z,5.33
2019-03-26T03:04:58.130Z,5.36
2019-03-26T03:07:32.631Z,5.36
2019-03-26T03:10:07.689Z,5.26
2019-03-26T03:12:41.922Z,5.15
2019-03-26T03:15:16.726Z,5.20
2019-03-26T03:17:51.029Z,5.29
2019-03-26T03:20:25.289Z,5.23
2019-03-26T03:22:59.524Z,5.30
2019-03-26T03:25:33.768Z,5.30
2019-03-26T03:28:08.002Z,5.27
2019-03-26T03:30:42.248Z,5.36
2019-03-26T03:33:17.190Z,5.49
2019-03-26T03:35:53.076Z,5.49
2019-03-26T03:38:27.602Z,5.49
2019-03-26T03:41:02.343Z,5.47
2019-03-26T03:43:36.565Z,5.38
2019-03-26T03:46:10.977Z,5.36
2019-03-26T03:48:45.887Z,5.17
2019-03-26T03:51:22.709Z,5.18
2019-03-26T03:53:57.531Z,5.18
2019-03-26T03:56:34.294Z,5.20
2019-03-26T03:59:10.626Z,5.24
2019-03-26T04:01:44.880Z,5.26
2019-03-26T04:04:19.104Z,5.26
2019-03-26T04:06:53.720Z,5.31
2019-03-26T04:09:28.254Z,5.33
2019-03-26T04:12:02.807Z,5.32
2019-03-26T04:14:37.039Z,5.35
2019-03-26T04:17:11.289Z,5.30
2019-03-26T04:19:45.519Z,5.31
2019-03-26T04:22:19.762Z,5.32
2019-03-26T04:24:53.997Z,5.32
2019-03-26T04:27:28.252Z,5.28
2019-03-26T04:30:02.561Z,5.22
2019-03-26T04:32:36.969Z,5.07
2019-03-26T04:35:11.290Z,4.95
2019-03-26T04:37:45.890Z,4.82
2019-03-26T04:40:20.934Z,4.74
2019-03-26T04:42:55.450Z,4.69
2019-03-26T04:45:30.100Z,4.74
2019-03-26T04:48:04.605Z,4.77
2019-03-26T04:50:38.839Z,4.78
2019-03-26T04:53:13.392Z,4.74
2019-03-26T04:55:47.703Z,4.68
2019-03-26T04:58:22.236Z,4.59
2019-03-26T05:00:56.471Z,4.46
2019-03-26T05:03:31.002Z,4.25
2019-03-26T05:06:05.230Z,4.16
2019-03-26T05:08:39.570Z,4.04
2019-03-26T05:11:14.059Z,4.05
2019-03-26T05:13:49.565Z,4.02
2019-03-26T05:16:23.801Z,4.13
2019-03-26T05:18:58.316Z,4.22
2019-03-26T05:21:32.648Z,4.29
2019-03-26T05:24:06.965Z,4.33
2019-03-26T05:26:41.462Z,4.34
2019-03-26T05:29:15.696Z,4.30
2019-03-26T05:31:49.936Z,4.22
2019-03-26T05:34:24.167Z,4.14
2019-03-26T05:36:58.417Z,4.12
2019-03-26T05:39:32.960Z,4.03
2019-03-26T05:42:07.481Z,4.03
2019-03-26T05:44:41.724Z,4.12
2019-03-26T05:47:15.982Z,4.21
2019-03-26T05:49:50.229Z,4.35
2019-03-26T05:52:24.480Z,4.52
2019-03-26T05:54:59.077Z,4.67
2019-03-26T05:57:33.599Z,4.83
2019-03-26T06:00:11.320Z,4.99
2019-03-26T06:02:45.652Z,5.13
2019-03-26T06:05:19.896Z,5.18
2019-03-26T06:07:54.151Z,5.29
2019-03-26T06:10:28.389Z,5.35
2019-03-26T06:13:02.651Z,5.41
2019-03-26T06:15:36.874Z,5.47
2019-03-26T06:18:11.404Z,5.56
2019-03-26T06:20:45.634Z,5.64
2019-03-26T06:23:19.878Z,5.74
2019-03-26T06:25:54.122Z,5.79
2019-03-26T06:28:28.372Z,5.82
2019-03-26T06:31:02.608Z,5.76
2019-03-26T06:33:36.863Z,5.86
2019-03-26T06:36:11.102Z,5.86
2019-03-26T06:38:45.344Z,5.86
2019-03-26T06:41:19.602Z,6.06
2019-03-26T06:43:53.875Z,6.30
2019-03-26T06:46:28.116Z,6.68
2019-03-26T06:49:02.380Z,6.70
2019-03-26T06:51:36.626Z,6.82
2019-03-26T06:54:10.880Z,6.93
2019-03-26T06:56:45.115Z,6.93
2019-03-26T06:59:19.432Z,7.19
2019-03-26T07:01:53.747Z,7.19
2019-03-26T07:04:28.607Z,7.27
2019-03-26T07:07:02.854Z,7.27
2019-03-26T07:09:37.178Z,7.26
2019-03-26T07:12:11.423Z,7.27
2019-03-26T07:14:45.991Z,7.24
2019-03-26T07:17:20.227Z,7.31
2019-03-26T07:19:54.740Z,7.22
2019-03-26T07:22:29.217Z,7.13
2019-03-26T07:25:03.966Z,7.09
2019-03-26T07:27:38.696Z,7.09
2019-03-26T07:30:15.399Z,7.04
2019-03-26T07:32:49.639Z,7.09
2019-03-26T07:35:23.896Z,7.17
2019-03-26T07:37:58.124Z,7.22
2019-03-26T07:40:32.381Z,7.22
2019-03-26T07:43:07.074Z,7.35
2019-03-26T07:45:41.628Z,7.57
2019-03-26T07:48:15.855Z,7.84
2019-03-26T07:50:50.101Z,7.89
2019-03-26T07:53:24.627Z,8.11
2019-03-26T07:55:59.475Z,8.32
2019-03-26T07:58:33.707Z,8.73
2019-03-26T08:01:07.965Z,9.14
2019-03-26T08:03:42.196Z,9.31
2019-03-26T08:06:16.519Z,9.15
2019-03-26T08:08:50.756Z,9.00
2019-03-26T08:11:25.001Z,8.81
2019-03-26T08:13:59.247Z,8.66
2019-03-26T08:16:33.511Z,8.49
2019-03-26T08:19:07.727Z,8.71
2019-03-26T08:21:42.237Z,9.03
2019-03-26T08:24:16.471Z,9.31
2019-03-26T08:26:52.189Z,9.15
2019-03-26T08:29:26.440Z,9.06
2019-03-26T08:32:00.699Z,8.86
2019-03-26T08:34:34.941Z,8.47
2019-03-26T08:37:09.191Z,8.36
2019-03-26T08:39:43.622Z,8.32
2019-03-26T08:42:17.858Z,8.31
2019-03-26T08:44:52.400Z,8.19
2019-03-26T08:47:26.681Z,8.10
2019-03-26T08:50:00.922Z,8.15
2019-03-26T08:52:35.168Z,8.16
2019-03-26T08:55:09.795Z,8.26
2019-03-26T08:57:44.045Z,8.37
2019-03-26T09:00:18.542Z,8.38
2019-03-26T09:02:53.074Z,8.46
2019-03-26T09:05:27.313Z,8.57
2019-03-26T09:08:01.601Z,8.80
2019-03-26T09:10:35.920Z,9.06
2019-03-26T09:13:10.160Z,9.26
2019-03-26T09:15:44.779Z,9.52
2019-03-26T09:18:19.692Z,10.05
2019-03-26T09:20:53.935Z,10.29
2019-03-26T09:23:28.205Z,10.40
2019-03-26T09:26:02.705Z,10.31
2019-03-26T09:28:37.220Z,9.94
2019-03-26T09:31:11.455Z,9.45
2019-03-26T09:33:45.745Z,9.03
2019-03-26T09:36:20.052Z,8.94
2019-03-26T09:38:54.302Z,8.85
2019-03-26T09:41:28.531Z,8.81
2019-03-26T09:44:02.790Z,8.64
2019-03-26T09:46:37.291Z,8.49
2019-03-26T09:49:11.568Z,8.31
2019-03-26T09:51:45.807Z,8.32
2019-03-26T09:54:20.063Z,8.35
2019-03-26T09:56:54.299Z,8.49
2019-03-26T09:59:28.556Z,8.81
2019-03-26T10:02:02.882Z,9.16
2019-03-26T10:04:37.139Z,9.57
2019-03-26T10:07:20.843Z,9.57
2019-03-26T10:09:47.345Z,9.59
2019-03-26T10:12:21.897Z,9.83
2019-03-26T10:14:56.208Z,10.23
2019-03-26T10:17:30.517Z,10.52
2019-03-26T10:20:05.398Z,10.74
2019-03-26T10:22:40.166Z,10.75
2019-03-26T10:25:14.508Z,10.44
2019-03-26T10:27:48.750Z,10.20
2019-03-26T10:30:33.619Z,10.09
2019-03-26T10:33:08.547Z,9.97
2019-03-26T10:35:42.791Z,9.94
2019-03-26T10:38:17.024Z,10.12
2019-03-26T10:40:51.278Z,10.40
2019-03-26T10:43:25.513Z,10.73
2019-03-26T10:45:59.841Z,10.94
2019-03-26T10:48:34.438Z,11.15
2019-03-26T10:51:08.721Z,11.11
2019-03-26T10:53:42.956Z,11.09
2019-03-26T10:56:17.222Z,11.13
2019-03-26T10:58:51.476Z,11.25
2019-03-26T11:01:25.737Z,11.53
2019-03-26T11:03:59.980Z,11.23
2019-03-26T11:06:34.243Z,11.49
2019-03-26T11:09:19.813Z,11.39
2019-03-26T11:11:45.188Z,11.54
2019-03-26T11:14:19.432Z,11.95
2019-03-26T11:16:53.981Z,12.19
2019-03-26T11:19:28.483Z,12.09
2019-03-26T11:22:02.738Z,11.93
2019-03-26T11:24:36.973Z,11.68
2019-03-26T11:27:11.226Z,11.21
2019-03-26T11:29:45.474Z,10.92
2019-03-26T11:32:19.741Z,10.60
2019-03-26T11:34:54.311Z,10.54
2019-03-26T11:37:28.550Z,10.96
2019-03-26T11:40:02.845Z,11.51
2019-03-26T11:42:37.099Z,12.11
2019-03-26T11:45:11.976Z,12.30
2019-03-26T11:47:46.234Z,12.06
2019-03-26T11:50:20.491Z,12.23
2019-03-26T11:52:54.776Z,12.59
2019-03-26T11:55:29.013Z,12.94
2019-03-26T11:58:03.270Z,12.69
2019-03-26T12:00:38.920Z,12.42
2019-03-26T12:03:13.204Z,12.41
2019-03-26T12:05:47.438Z,12.56
2019-03-26T12:08:21.705Z,12.38
2019-03-26T12:10:55.953Z,12.20
2019-03-26T12:13:30.770Z,12.02
2019-03-26T12:16:05.185Z,11.79
2019-03-26T12:18:39.814Z,11.64
2019-03-26T12:21:16.030Z,11.77
2019-03-26T12:23:50.285Z,11.81
2019-03-26T12:26:24.530Z,11.53
2019-03-26T12:28:59.056Z,11.50
2019-03-26T12:31:33.297Z,11.35
2019-03-26T12:34:07.655Z,11.24
2019-03-26T12:36:41.905Z,11.41
2019-03-26T12:39:16.448Z,11.33
2019-03-26T12:41:50.687Z,11.60
2019-03-26T12:44:25.028Z,11.80
2019-03-26T12:46:59.587Z,11.99
2019-03-26T12:49:33.916Z,11.95
2019-03-26T12:52:08.165Z,12.06
2019-03-26T12:54:43.109Z,12.03
2019-03-26T12:57:17.348Z,12.05
2019-03-26T12:59:51.647Z,11.88
2019-03-26T13:02:25.889Z,11.71
2019-03-26T13:05:00.353Z,11.75
2019-03-26T13:07:34.623Z,11.72
2019-03-26T13:10:13.814Z,12.06
2019-03-26T13:12:45.398Z,12.47
2019-03-26T13:15:20.182Z,12.76
2019-03-26T13:17:54.419Z,12.65
2019-03-26T13:20:28.675Z,12.43
2019-03-26T13:23:02.918Z,12.11
2019-03-26T13:25:37.454Z,11.89
2019-03-26T13:28:11.850Z,11.84
2019-03-26T13:30:46.194Z,11.78
2019-03-26T13:33:20.430Z,11.52
2019-03-26T13:35:54.689Z,11.51
2019-03-26T13:38:28.924Z,11.35
2019-03-26T13:41:03.362Z,11.58
2019-03-26T13:43:37.591Z,11.41
2019-03-26T13:46:11.897Z,11.67
2019-03-26T13:48:46.130Z,11.68
2019-03-26T13:51:20.468Z,11.70
2019-03-26T13:53:55.015Z,11.64
2019-03-26T13:56:30.129Z,11.35
2019-03-26T13:59:04.475Z,11.14
2019-03-26T14:01:42.061Z,11.24
2019-03-26T14:04:16.611Z,11.22
2019-03-26T14:06:52.521Z,11.20
2019-03-26T14:09:26.948Z,11.12
2019-03-26T14:12:01.197Z,11.18
2019-03-26T14:14:35.437Z,10.96
2019-03-26T14:17:09.718Z,10.69
2019-03-26T14:19:44.028Z,10.73
2019-03-26T14:22:18.311Z,10.80
2019-03-26T14:24:52.556Z,10.63
2019-03-26T14:27:26.816Z,10.66
2019-03-26T14:30:01.128Z,10.46
2019-03-26T14:32:35.959Z,10.30
2019-03-26T14:35:10.353Z,10.23
2019-03-26T14:37:51.200Z,10.24
2019-03-26T14:40:20.545Z,10.14
2019-03-26T14:42:54.800Z,10.16
2019-03-26T14:45:29.216Z,10.15
2019-03-26T14:48:03.474Z,10.15
2019-03-26T14:50:37.784Z,10.07
2019-03-26T14:53:12.045Z,10.03
2019-03-26T14:55:46.276Z,10.11
2019-03-26T14:58:20.869Z,10.08
2019-03-26T15:00:55.183Z,9.96
2019-03-26T15:03:29.457Z,9.89
2019-03-26T15:06:04.726Z,9.87
2019-03-26T15:08:38.998Z,9.93
2019-03-26T15:11:13.232Z,10.03
2019-03-26T15:13:49.460Z,9.99
2019-03-26T15:16:23.439Z,9.99
2019-03-26T15:18:57.690Z,10.08
2019-03-26T15:21:32.005Z,10.21
2019-03-26T15:24:06.254Z,10.31
2019-03-26T15:26:40.575Z,10.26
2019-03-26T15:29:14.824Z,10.23
2019-03-26T15:31:49.125Z,10.21
2019-03-26T15:34:35.609Z,10.14
2019-03-26T15:36:59.325Z,9.95
2019-03-26T15:39:33.580Z,9.97
2019-03-26T15:42:07.819Z,10.04
2019-03-26T15:44:42.480Z,10.06
2019-03-26T15:47:16.715Z,10.14
2019-03-26T15:49:50.958Z,9.92
2019-03-26T15:52:25.188Z,9.86
2019-03-26T15:54:59.782Z,9.75
2019-03-26T15:57:34.008Z,9.77
2019-03-26T16:00:09.524Z,9.85
2019-03-26T16:02:43.750Z,9.81
2019-03-26T16:05:17.996Z,9.77
2019-03-26T16:07:52.223Z,9.76
2019-03-26T16:10:26.482Z,9.76
2019-03-26T16:13:01.013Z,9.81
2019-03-26T16:15:44.047Z,9.72
2019-03-26T16:18:11.608Z,9.72
2019-03-26T16:20:45.863Z,9.57
2019-03-26T16:23:20.102Z,9.51
2019-03-26T16:25:54.425Z,9.47
2019-03-26T16:28:28.651Z,9.40
2019-03-26T16:31:02.892Z,9.35
2019-03-26T16:33:37.127Z,9.27
2019-03-26T16:36:11.545Z,9.24
2019-03-26T16:38:45.776Z,9.26
2019-03-26T16:41:20.038Z,9.24
2019-03-26T16:43:54.266Z,9.22
2019-03-26T16:46:28.543Z,9.25
2019-03-26T16:49:02.832Z,9.17
2019-03-26T16:51:37.535Z,9.18
2019-03-26T16:54:11.751Z,9.23
2019-03-26T16:56:45.993Z,9.14
2019-03-26T16:59:20.220Z,9.14
2019-03-26T17:01:55.199Z,9.12
2019-03-26T17:04:29.509Z,9.15
2019-03-26T17:07:04.024Z,9.13
2019-03-26T17:09:38.256Z,9.08
2019-03-26T17:12:12.587Z,9.00
2019-03-26T17:14:46.813Z,8.81
2019-03-26T17:17:21.358Z,8.80
2019-03-26T17:19:55.592Z,8.79
2019-03-26T17:22:29.845Z,8.80
2019-03-26T17:25:04.691Z,8.77
2019-03-26T17:27:39.041Z,8.73
2019-03-26T17:30:13.626Z,8.66
2019-03-26T17:32:47.878Z,8.64
2019-03-26T17:35:22.107Z,8.59
2019-03-26T17:37:59.983Z,8.63
2019-03-26T17:40:32.328Z,8.54
2019-03-26T17:43:06.664Z,8.50
2019-03-26T17:45:41.231Z,8.51
2019-03-26T17:48:15.487Z,8.42
2019-03-26T17:50:49.723Z,8.42
2019-03-26T17:53:23.992Z,8.31
2019-03-26T17:55:58.234Z,8.19
2019-03-26T17:58:32.562Z,8.13
2019-03-26T18:01:07.050Z,8.11
2019-03-26T18:03:42.217Z,8.07
2019-03-26T18:06:16.533Z,8.00
2019-03-26T18:08:51.442Z,8.03
2019-03-26T18:11:25.679Z,7.98
2019-03-26T18:14:00.963Z,7.98
2019-03-26T18:16:35.224Z,7.96
2019-03-26T18:19:09.576Z,7.93
2019-03-26T18:21:51.361Z,7.94
2019-03-26T18:24:19.875Z,7.97
2019-03-26T18:26:54.360Z,7.91
2019-03-26T18:29:28.622Z,7.88
2019-03-26T18:32:02.884Z,7.87
2019-03-26T18:34:37.137Z,7.83
2019-03-26T18:37:11.377Z,7.75
2019-03-26T18:39:45.805Z,7.72
2019-03-26T18:42:20.355Z,7.65
2019-03-26T18:44:54.615Z,7.64
2019-03-26T18:47:28.859Z,7.62
2019-03-26T18:50:03.444Z,7.59
2019-03-26T18:52:37.686Z,7.62
2019-03-26T18:55:12.781Z,7.55
2019-03-26T18:57:47.069Z,7.54
2019-03-26T19:00:33.946Z,7.45
2019-03-26T19:03:08.733Z,7.45
2019-03-26T19:05:43.026Z,7.39
2019-03-26T19:08:17.339Z,7.34
2019-03-26T19:10:51.590Z,7.26
2019-03-26T19:13:25.817Z,7.26
2019-03-26T19:16:00.200Z,7.26
2019-03-26T19:18:34.808Z,7.18
2019-03-26T19:21:09.225Z,7.18
2019-03-26T19:23:43.452Z,7.17
2019-03-26T19:26:17.991Z,7.16
2019-03-26T19:28:52.319Z,7.13
2019-03-26T19:31:26.577Z,7.13
2019-03-26T19:34:00.817Z,7.06
2019-03-26T19:36:35.452Z,6.99
2019-03-26T19:39:09.689Z,6.91
2019-03-26T19:41:44.203Z,6.88
2019-03-26T19:44:18.427Z,6.89
2019-03-26T19:46:52.681Z,6.74
2019-03-26T19:49:26.916Z,6.74
2019-03-26T19:52:01.532Z,6.86
2019-03-26T19:54:35.803Z,6.82
2019-03-26T19:57:10.040Z,6.76
2019-03-26T19:59:44.280Z,6.76
2019-03-26T20:02:18.589Z,6.72
2019-03-26T20:04:52.827Z,6.72
2019-03-26T20:07:27.621Z,6.67
2019-03-26T20:10:01.909Z,6.52
2019-03-26T20:12:36.150Z,6.50
2019-03-26T20:15:11.310Z,6.42
2019-03-26T20:17:45.800Z,6.42
2019-03-26T20:20:20.474Z,6.40
2019-03-26T20:22:54.769Z,6.34
2019-03-26T20:25:29.012Z,6.34
2019-03-26T20:28:03.270Z,6.31
2019-03-26T20:30:37.505Z,6.13
2019-03-26T20:33:12.098Z,6.06
2019-03-26T20:35:46.691Z,5.91
2019-03-26T20:38:20.959Z,5.91
2019-03-26T20:40:55.463Z,5.86
2019-03-26T20:43:37.276Z,5.77
2019-03-26T20:46:05.706Z,5.73
2019-03-26T20:48:39.960Z,5.55
2019-03-26T20:51:14.281Z,5.55
2019-03-26T20:53:48.538Z,5.52
2019-03-26T20:56:23.486Z,5.48
2019-03-26T20:58:57.919Z,5.40
2019-03-26T21:01:32.619Z,5.30
2019-03-26T21:04:07.198Z,5.25
2019-03-26T21:06:41.454Z,5.21
2019-03-26T21:09:15.793Z,5.14
2019-03-26T21:11:50.144Z,5.12
2019-03-26T21:14:24.388Z,5.06
2019-03-26T21:16:58.669Z,4.96
2019-03-26T21:19:32.901Z,4.91
2019-03-26T21:22:07.232Z,4.83
2019-03-26T21:24:41.477Z,4.74
2019-03-26T21:27:15.755Z,4.64
2019-03-26T21:29:50.006Z,4.62
2019-03-26T21:32:24.262Z,4.61
2019-03-26T21:34:58.497Z,4.53
2019-03-26T21:37:32.748Z,4.46
2019-03-26T21:40:08.526Z,4.39
2019-03-26T21:42:42.856Z,4.33
2019-03-26T21:45:19.104Z,4.32
2019-03-26T21:47:53.597Z,4.31
2019-03-26T21:50:27.833Z,4.30
2019-03-26T21:53:02.454Z,4.26
2019-03-26T21:55:36.775Z,4.24
2019-03-26T21:58:11.069Z,4.23
2019-03-26T22:00:45.304Z,4.21
2019-03-26T22:03:19.561Z,4.17
2019-03-26T22:05:53.794Z,4.19
2019-03-26T22:08:28.046Z,4.11
2019-03-26T22:11:02.384Z,4.07
2019-03-26T22:13:36.694Z,4.07
2019-03-26T22:16:10.929Z,4.00
2019-03-26T22:18:45.196Z,3.98
2019-03-26T22:21:19.434Z,3.96
2019-03-26T22:23:53.691Z,3.93
2019-03-26T22:26:27.930Z,3.93
2019-03-26T22:29:02.186Z,3.87
2019-03-26T22:31:36.435Z,3.88
2019-03-26T22:34:10.696Z,3.89
2019-03-26T22:36:44.932Z,3.85
2019-03-26T22:39:19.177Z,3.85
2019-03-26T22:41:53.411Z,3.87
2019-03-26T22:44:31.599Z,3.82
2019-03-26T22:47:03.773Z,3.80
2019-03-26T22:49:38.036Z,3.82
2019-03-26T22:52:12.697Z,3.83
2019-03-26T22:54:47.029Z,3.83
2019-03-26T22:57:21.549Z,3.87
2019-03-26T22:59:55.810Z,3.86
2019-03-26T23:02:30.419Z,3.82
2019-03-26T23:05:04.960Z,3.77
2019-03-26T23:07:39.189Z,3.73
2019-03-26T23:10:14.693Z,3.69
2019-03-26T23:12:48.929Z,3.68
2019-03-26T23:15:24.626Z,3.66
2019-03-26T23:17:58.924Z,3.66
2019-03-26T23:20:33.236Z,3.62
2019-03-26T23:23:07.554Z,3.67
2019-03-26T23:25:42.149Z,3.71
2019-03-26T23:28:16.393Z,3.78
2019-03-26T23:30:51.042Z,3.85
2019-03-26T23:33:25.274Z,3.89
2019-03-26T23:35:59.539Z,3.98
2019-03-26T23:38:33.785Z,4.05
2019-03-26T23:41:08.041Z,4.10
2019-03-26T23:43:42.280Z,4.13
2019-03-26T23:46:16.532Z,4.22
2019-03-26T23:48:50.769Z,4.21
2019-03-26T23:51:25.021Z,4.31
2019-03-26T23:53:59.257Z,4.35
2019-03-26T23:56:33.506Z,4.42
2019-03-26T23:59:07.742Z,4.43
